Kununurra, Australia
Current Conditions -  °F | °C
As of 6:00 PM on Thursday 23 Oct 2014 (Local Time) from YPKU Reporting Station
Clear Clear  
Wind Chill: 90°   Ceiling: Unl
Heat Index: 90°   Visibility: 6mi
Dew Point: 63°   Wind: 8mph
Humidity: 40%   Direction: 330°NNW
Pressure: 29.83"   Gusts: NA
Location:  15.77°S, 128.74°E
Report Text: YPKU 231000Z AUTO 33007KT 9999 // NCD 32/17 Q1010
Loading
Personal Weather Stations






























Interactive Weather Map
Tropical Storm Tracking
New forecast layout! Learn more

10-Day Weather Forecast

Advertisements
Track Severe Weather on mobile